createdAt,value
2018-05-06T08:53:55.402Z,55.47
2018-05-06T08:56:26.383Z,54.21
2018-05-06T08:58:57.409Z,52.64
2018-05-06T09:01:28.398Z,51.04
2018-05-06T09:03:59.391Z,51.19
2018-05-06T09:06:30.407Z,51.95
2018-05-06T09:09:01.400Z,51.97
2018-05-06T09:11:32.444Z,52.18
2018-05-06T09:14:03.415Z,53.30
2018-05-06T09:16:34.445Z,52.01
2018-05-06T09:19:05.454Z,51.88
2018-05-06T09:21:36.998Z,52.24
2018-05-06T09:24:08.143Z,52.94
2018-05-06T09:26:39.177Z,53.23
2018-05-06T09:29:10.145Z,52.55
2018-05-06T09:31:41.150Z,53.29
2018-05-06T09:34:12.156Z,53.67
2018-05-06T09:36:43.168Z,53.64
2018-05-06T09:39:14.131Z,53.93
2018-05-06T09:41:45.063Z,54.52
2018-05-06T09:44:16.021Z,55.02
2018-05-06T09:46:53.999Z,54.73
2018-05-06T09:49:25.004Z,52.57
2018-05-06T09:51:55.995Z,51.45
2018-05-06T09:54:29.327Z,52.20
2018-05-06T09:57:00.308Z,50.14
2018-05-06T09:59:31.349Z,49.63
2018-05-06T10:02:02.403Z,49.44
2018-05-06T10:04:35.391Z,48.72
2018-05-06T10:07:06.471Z,48.37
2018-05-06T10:09:37.488Z,49.46
2018-05-06T10:12:08.442Z,50.67
2018-05-06T10:14:39.449Z,50.26
2018-05-06T10:17:10.471Z,49.50
2018-05-06T10:19:41.471Z,49.22
2018-05-06T10:22:12.445Z,49.07
2018-05-06T10:24:43.460Z,48.59
2018-05-06T10:27:14.579Z,48.84
2018-05-06T10:29:45.562Z,49.06
2018-05-06T10:32:16.529Z,47.22
2018-05-06T10:34:47.527Z,47.06
2018-05-06T10:37:18.528Z,47.01
2018-05-06T10:39:49.473Z,45.30
2018-05-06T10:42:20.529Z,44.28
2018-05-06T10:44:51.502Z,44.21
2018-05-06T10:47:22.490Z,42.63
2018-05-06T10:49:53.541Z,42.04
2018-05-06T10:52:24.538Z,40.94
2018-05-06T10:54:55.520Z,39.93
2018-05-06T10:57:26.493Z,38.51
2018-05-06T10:59:57.493Z,36.14
2018-05-06T11:02:28.482Z,33.96
2018-05-06T11:04:59.510Z,32.23
2018-05-06T11:07:30.514Z,30.65
2018-05-06T11:10:01.526Z,29.70
2018-05-06T11:12:32.513Z,28.89
2018-05-06T11:15:03.499Z,28.43
2018-05-06T11:17:34.469Z,27.85
2018-05-06T11:20:05.410Z,27.66
2018-05-06T11:22:36.404Z,27.27
2018-05-06T11:25:07.400Z,27.06
2018-05-06T11:27:38.380Z,27.06
2018-05-06T11:30:09.382Z,27.12
2018-05-06T11:32:40.398Z,27.40
2018-05-06T11:35:11.442Z,27.67
2018-05-06T11:37:42.446Z,27.63
2018-05-06T11:40:13.432Z,27.65
2018-05-06T11:42:44.381Z,27.71
2018-05-06T11:45:15.416Z,27.58
2018-05-06T11:47:46.489Z,27.47
2018-05-06T11:50:17.466Z,27.39
2018-05-06T11:52:48.479Z,27.43
2018-05-06T11:55:19.524Z,27.59
2018-05-06T11:57:50.503Z,27.64
2018-05-06T12:00:21.516Z,27.34
2018-05-06T12:02:52.530Z,27.43
2018-05-06T12:05:23.563Z,27.37
2018-05-06T12:07:54.600Z,27.43
2018-05-06T12:10:25.596Z,27.76
2018-05-06T12:12:56.596Z,27.69
2018-05-06T12:15:27.567Z,27.85
2018-05-06T12:17:58.643Z,28.10
2018-05-06T12:20:29.653Z,28.14
2018-05-06T12:23:00.736Z,27.96
2018-05-06T12:25:31.789Z,28.01
2018-05-06T12:28:02.807Z,28.03
2018-05-06T12:30:33.864Z,27.96
2018-05-06T12:33:04.970Z,28.14
2018-05-06T12:35:35.979Z,28.11
2018-05-06T12:38:06.936Z,28.37
2018-05-06T12:40:37.928Z,28.60
2018-05-06T12:43:08.987Z,28.56
2018-05-06T12:45:39.915Z,28.64
2018-05-06T12:48:10.922Z,28.82
2018-05-06T12:50:41.941Z,28.38
2018-05-06T12:53:12.977Z,28.43
2018-05-06T12:55:43.985Z,28.48
2018-05-06T12:58:14.974Z,28.57
2018-05-06T13:00:45.995Z,28.70
2018-05-06T13:03:16.985Z,28.84
2018-05-06T13:05:48.044Z,28.91
2018-05-06T13:08:19.164Z,29.10
2018-05-06T13:10:50.290Z,29.47
2018-05-06T13:13:21.252Z,29.62
2018-05-06T13:15:52.232Z,29.28
2018-05-06T13:18:23.327Z,29.11
2018-05-06T13:20:54.349Z,29.35
2018-05-06T13:23:25.437Z,29.72
2018-05-06T13:25:56.468Z,29.26
2018-05-06T13:28:27.504Z,28.99
2018-05-06T13:30:58.584Z,29.16
2018-05-06T13:33:29.703Z,29.19
2018-05-06T13:36:00.728Z,29.35
2018-05-06T13:38:31.725Z,29.25
2018-05-06T13:41:02.788Z,29.39
2018-05-06T13:43:33.821Z,29.64
2018-05-06T13:46:04.810Z,29.84
2018-05-06T13:48:35.851Z,29.77
2018-05-06T13:51:06.897Z,29.77
2018-05-06T13:53:37.912Z,30.02
2018-05-06T13:56:08.922Z,29.73
2018-05-06T13:58:39.936Z,29.19
2018-05-06T14:01:10.981Z,29.21
2018-05-06T14:03:41.928Z,28.72
2018-05-06T14:06:12.997Z,28.83
2018-05-06T14:08:43.968Z,28.81
2018-05-06T14:11:14.950Z,28.68
2018-05-06T14:13:45.942Z,28.61
2018-05-06T14:16:16.935Z,29.35
2018-05-06T14:18:47.916Z,29.73
2018-05-06T14:21:18.951Z,30.02
2018-05-06T14:23:49.989Z,29.34
2018-05-06T14:26:20.998Z,29.17
2018-05-06T14:28:51.979Z,28.89
2018-05-06T14:31:22.999Z,28.72
2018-05-06T14:33:54.026Z,28.92
2018-05-06T14:36:25.003Z,29.02
2018-05-06T14:38:56.167Z,29.08
2018-05-06T14:41:27.126Z,29.39
2018-05-06T14:43:58.124Z,29.41
2018-05-06T14:46:41.298Z,28.99
2018-05-06T14:49:12.501Z,28.84
2018-05-06T14:51:43.476Z,28.82
2018-05-06T14:54:14.512Z,28.90
2018-05-06T14:56:45.571Z,28.63
2018-05-06T14:59:16.564Z,28.83
2018-05-06T15:01:47.556Z,29.21
2018-05-06T15:04:18.568Z,29.30
2018-05-06T15:06:49.608Z,29.35
2018-05-06T15:09:20.607Z,29.48
2018-05-06T15:11:51.604Z,29.35
2018-05-06T15:14:34.995Z,29.10
2018-05-06T15:17:06.026Z,28.86
2018-05-06T15:19:37.048Z,28.99
2018-05-06T15:22:08.046Z,28.91
2018-05-06T15:24:39.078Z,29.13
2018-05-06T15:27:10.082Z,29.12
2018-05-06T15:29:41.117Z,28.94
2018-05-06T15:32:12.118Z,28.96
2018-05-06T15:34:43.118Z,28.57
2018-05-06T15:37:14.105Z,28.25
2018-05-06T15:39:45.104Z,28.01
2018-05-06T15:42:16.088Z,27.92
2018-05-06T15:44:47.063Z,27.93
2018-05-06T15:47:18.087Z,27.81
2018-05-06T15:49:49.047Z,27.41
2018-05-06T15:52:20.087Z,27.37
2018-05-06T15:54:51.033Z,27.46
2018-05-06T15:57:22.129Z,27.48
2018-05-06T15:59:53.161Z,27.31
2018-05-06T16:05:32.376Z,26.68
2018-05-06T16:08:03.440Z,26.46
2018-05-06T16:10:34.444Z,26.53
2018-05-06T16:13:05.447Z,26.43
2018-05-06T16:15:36.485Z,26.34
2018-05-06T16:18:07.492Z,26.24
2018-05-06T16:20:38.491Z,26.26
2018-05-06T16:23:09.504Z,26.13
2018-05-06T16:25:40.477Z,25.99
2018-05-06T16:28:11.501Z,25.81
2018-05-06T16:30:42.475Z,25.59
2018-05-06T16:33:13.446Z,25.53
2018-05-06T16:35:44.459Z,25.54
2018-05-06T16:38:15.449Z,25.53
2018-05-06T16:40:46.469Z,25.56
2018-05-06T16:43:17.480Z,25.56
2018-05-06T16:45:48.517Z,25.45
2018-05-06T16:48:19.488Z,25.30
2018-05-06T16:50:50.519Z,25.34
2018-05-06T16:53:21.539Z,25.32
2018-05-06T16:55:52.568Z,25.30
2018-05-06T16:58:23.586Z,25.27
2018-05-06T17:00:54.588Z,25.21
2018-05-06T17:03:25.595Z,25.14
2018-05-06T17:05:56.619Z,25.11
2018-05-06T17:08:27.905Z,25.03
2018-05-06T17:10:59.003Z,24.89
2018-05-06T17:13:29.999Z,24.65
2018-05-06T17:16:00.976Z,24.64
2018-05-06T17:18:31.987Z,24.61
2018-05-06T17:21:03.016Z,24.49
2018-05-06T17:23:34.026Z,24.43
2018-05-06T17:26:05.012Z,24.42
2018-05-06T17:28:36.078Z,24.30
2018-05-06T17:31:07.096Z,24.23
2018-05-06T17:33:38.108Z,24.05
2018-05-06T17:36:09.138Z,24.02
2018-05-06T17:38:40.134Z,24.03
2018-05-06T17:41:11.170Z,23.99
2018-05-06T17:43:42.264Z,23.92
2018-05-06T17:46:13.275Z,23.87
2018-05-06T17:48:44.239Z,23.81
2018-05-06T17:51:15.289Z,23.69
2018-05-06T17:53:46.315Z,23.51
2018-05-06T17:56:17.373Z,23.50
2018-05-06T17:58:48.381Z,23.39
2018-05-06T18:01:19.406Z,23.35
2018-05-06T18:03:50.456Z,23.22
2018-05-06T18:06:21.450Z,23.13
2018-05-06T18:08:52.454Z,23.04
2018-05-06T18:11:23.442Z,23.02
2018-05-06T18:13:54.427Z,22.97
2018-05-06T18:16:25.431Z,22.85
2018-05-06T18:18:56.429Z,22.79
2018-05-06T18:21:27.420Z,22.69
2018-05-06T18:23:58.526Z,22.56
2018-05-06T18:26:29.527Z,22.45
2018-05-06T18:29:00.554Z,22.35
2018-05-06T18:31:31.551Z,22.27
2018-05-06T18:34:02.518Z,22.22
2018-05-06T18:36:33.506Z,22.15
2018-05-06T18:39:04.544Z,22.09
2018-05-06T18:41:35.563Z,21.99
2018-05-06T18:44:06.568Z,21.93
2018-05-06T18:46:37.549Z,21.91
2018-05-06T18:49:08.559Z,21.81
2018-05-06T18:51:39.650Z,21.70
2018-05-06T18:54:10.638Z,21.64
2018-05-06T18:56:41.610Z,21.59
2018-05-06T18:59:12.584Z,21.52
2018-05-06T19:01:43.647Z,21.45
2018-05-06T19:04:14.627Z,21.39
2018-05-06T19:06:45.688Z,21.32
2018-05-06T19:09:16.695Z,21.24
2018-05-06T19:11:47.716Z,21.16
2018-05-06T19:14:18.691Z,21.13
2018-05-06T19:16:49.692Z,21.04
2018-05-06T19:19:20.723Z,21.04
2018-05-06T19:21:51.748Z,21.00
2018-05-06T19:24:22.819Z,20.93
2018-05-06T19:26:53.790Z,20.83
2018-05-06T19:29:24.866Z,20.78
2018-05-06T19:31:55.804Z,20.71
2018-05-06T19:34:26.805Z,20.62
2018-05-06T19:36:57.787Z,20.61
2018-05-06T19:39:28.800Z,20.51
2018-05-06T19:41:59.888Z,20.49
2018-05-06T19:44:30.890Z,20.39
2018-05-06T19:47:01.923Z,20.33
2018-05-06T19:49:32.897Z,20.28
2018-05-06T19:52:03.882Z,20.26
2018-05-06T19:54:34.850Z,20.22
2018-05-06T19:57:05.860Z,20.17
2018-05-06T19:59:36.878Z,20.14
2018-05-06T20:02:07.907Z,20.03
2018-05-06T20:04:38.886Z,19.92
2018-05-06T20:07:09.878Z,19.87
2018-05-06T20:09:40.846Z,19.83
2018-05-06T20:12:11.857Z,19.83
2018-05-06T20:14:42.852Z,19.79
2018-05-06T20:17:13.901Z,19.77
2018-05-06T20:19:44.896Z,19.69
2018-05-06T20:22:15.858Z,19.65
2018-05-06T20:24:46.862Z,19.62
2018-05-06T20:27:17.859Z,19.57
2018-05-06T20:29:48.845Z,19.48
2018-05-06T20:32:19.903Z,19.46
2018-05-06T20:34:50.844Z,19.42
2018-05-06T20:37:21.801Z,19.41
2018-05-06T20:39:52.789Z,19.31
2018-05-06T20:42:23.756Z,19.32
2018-05-06T20:44:54.684Z,19.30
2018-05-06T20:47:25.606Z,19.25
2018-05-06T20:49:56.568Z,19.20
2018-05-06T20:52:27.518Z,19.14
2018-05-06T20:54:58.464Z,19.09
2018-05-06T20:57:29.423Z,19.03
2018-05-06T21:00:00.350Z,18.95
2018-05-06T21:02:31.310Z,18.94
2018-05-06T21:05:02.311Z,18.92
2018-05-06T21:07:33.248Z,18.86
2018-05-06T21:10:04.213Z,18.77
2018-05-06T21:12:35.178Z,18.75
2018-05-06T21:15:06.124Z,18.68
2018-05-06T21:17:37.025Z,18.65
2018-05-06T21:20:07.954Z,18.63
2018-05-06T21:22:38.910Z,18.62
2018-05-06T21:25:09.942Z,18.61
2018-05-06T21:27:40.918Z,18.52
2018-05-06T21:30:11.860Z,18.46
2018-05-06T21:32:42.800Z,18.48
2018-05-06T21:35:13.733Z,18.43
2018-05-06T21:37:44.728Z,18.37
2018-05-06T21:40:15.631Z,18.27
2018-05-06T21:42:46.643Z,18.26
2018-05-06T21:45:17.625Z,18.22
2018-05-06T21:47:48.558Z,18.18
2018-05-06T21:50:19.485Z,18.11
2018-05-06T21:52:50.487Z,18.08
2018-05-06T21:55:21.413Z,18.03
2018-05-06T21:57:52.331Z,17.98
2018-05-06T22:00:23.287Z,17.94
2018-05-06T22:02:54.214Z,17.89
2018-05-06T22:05:25.250Z,17.83
2018-05-06T22:07:56.241Z,17.77
2018-05-06T22:10:27.177Z,17.69
2018-05-06T22:12:58.090Z,17.65
2018-05-06T22:15:29.020Z,17.60
2018-05-06T22:17:59.951Z,17.53
2018-05-06T22:20:30.854Z,17.50
2018-05-06T22:23:01.786Z,17.47
2018-05-06T22:25:32.749Z,17.43
2018-05-06T22:28:03.713Z,17.39
2018-05-06T22:30:34.610Z,17.34
2018-05-06T22:33:05.621Z,17.31
2018-05-06T22:35:36.490Z,17.26
2018-05-06T22:38:07.414Z,17.23
2018-05-06T22:40:38.352Z,17.20
2018-05-06T22:43:09.321Z,17.13
2018-05-06T22:45:40.286Z,17.08
2018-05-06T22:48:11.216Z,17.03
2018-05-06T22:50:42.149Z,17.00
2018-05-06T22:53:13.097Z,16.93
2018-05-06T22:55:44.061Z,16.91
2018-05-06T22:58:15.000Z,16.89
2018-05-06T23:00:45.986Z,16.85
2018-05-06T23:03:16.882Z,16.83
2018-05-06T23:05:47.844Z,16.80
2018-05-06T23:08:18.746Z,16.77
2018-05-06T23:10:49.630Z,16.73
2018-05-06T23:13:20.575Z,16.72
2018-05-06T23:15:51.478Z,16.67
2018-05-06T23:18:22.421Z,16.60
2018-05-06T23:20:53.371Z,16.51
2018-05-06T23:23:24.296Z,16.52
2018-05-06T23:25:55.213Z,16.48
2018-05-06T23:28:26.196Z,16.46
2018-05-06T23:30:57.158Z,16.43
2018-05-06T23:33:28.096Z,16.44
2018-05-06T23:35:59.076Z,16.41
2018-05-06T23:38:30.050Z,16.42
2018-05-06T23:41:00.989Z,16.41
2018-05-06T23:43:31.905Z,16.39
2018-05-06T23:46:02.939Z,16.35
2018-05-06T23:48:33.872Z,16.33
2018-05-06T23:51:04.856Z,16.30
2018-05-06T23:53:35.817Z,16.32
2018-05-06T23:56:06.746Z,16.30
2018-05-06T23:58:37.697Z,16.25
